createdAt,value
2022-10-07T00:02:39.339Z,12.90
2022-10-07T00:07:39.285Z,12.93
2022-10-07T00:12:41.231Z,12.99
2022-10-07T00:17:41.717Z,12.95
2022-10-07T00:22:42.527Z,13.06
2022-10-07T00:27:43.707Z,13.04
2022-10-07T00:32:43.057Z,12.62
2022-10-07T00:37:47.851Z,12.68
2022-10-07T00:42:46.654Z,12.67
2022-10-07T00:47:49.282Z,12.46
2022-10-07T00:52:55.368Z,12.35
2022-10-07T00:57:57.361Z,12.49
2022-10-07T01:02:58.124Z,12.33
2022-10-07T01:08:01.457Z,12.32
2022-10-07T01:13:38.747Z,11.94
2022-10-07T01:19:32.609Z,12.17
2022-10-07T01:24:51.992Z,12.14
2022-10-07T01:29:57.647Z,11.89
2022-10-07T01:34:56.405Z,12.15
2022-10-07T01:39:58.640Z,12.03
2022-10-07T01:45:01.217Z,12.18
2022-10-07T01:49:59.666Z,12.04
2022-10-07T01:55:06.070Z,12.09
2022-10-07T02:00:11.423Z,12.00
2022-10-07T02:05:35.301Z,11.86
2022-10-07T02:10:39.314Z,11.86
2022-10-07T02:15:55.788Z,11.67
2022-10-07T02:20:55.287Z,11.66
2022-10-07T02:25:55.082Z,11.53
2022-10-07T02:30:56.409Z,11.19
2022-10-07T02:35:58.216Z,11.42
2022-10-07T02:41:13.941Z,11.37
2022-10-07T02:46:30.949Z,11.04
2022-10-07T02:51:37.822Z,11.27
2022-10-07T02:56:41.698Z,11.40
2022-10-07T03:01:47.668Z,11.30
2022-10-07T03:06:49.992Z,11.13
2022-10-07T03:11:52.434Z,11.17
2022-10-07T03:16:52.874Z,11.35
2022-10-07T03:21:52.355Z,11.38
2022-10-07T03:26:54.357Z,11.56
2022-10-07T03:31:57.730Z,11.93
2022-10-07T03:36:55.548Z,11.61
2022-10-07T03:42:01.061Z,11.51
2022-10-07T03:47:08.692Z,11.44
2022-10-07T03:52:10.235Z,11.62
2022-10-07T03:57:29.858Z,11.47
2022-10-07T04:02:32.764Z,11.33
2022-10-07T04:07:33.726Z,11.14
2022-10-07T04:12:35.548Z,11.17
2022-10-07T04:17:36.222Z,11.20
2022-10-07T04:22:36.888Z,11.32
2022-10-07T04:27:51.049Z,11.02
2022-10-07T04:32:56.657Z,10.89
2022-10-07T04:37:58.098Z,10.81
2022-10-07T04:43:20.184Z,11.02
2022-10-07T04:48:27.380Z,11.05
2022-10-07T04:53:28.135Z,11.28
2022-10-07T04:58:29.884Z,11.18
2022-10-07T05:03:36.216Z,10.63
2022-10-07T05:08:34.862Z,10.75
2022-10-07T05:13:34.416Z,10.45
2022-10-07T05:18:34.567Z,10.34
2022-10-07T05:23:38.442Z,10.86
2022-10-07T05:28:47.557Z,11.09
2022-10-07T05:33:50.169Z,11.14
2022-10-07T05:38:59.731Z,11.25
2022-10-07T05:44:10.527Z,11.16
2022-10-07T05:49:12.881Z,11.34
2022-10-07T05:54:14.058Z,11.71
2022-10-07T05:59:15.717Z,11.68
2022-10-07T06:04:16.961Z,11.90
2022-10-07T06:09:37.906Z,11.82
2022-10-07T06:14:44.539Z,11.81
2022-10-07T06:19:46.492Z,11.79
2022-10-07T06:24:47.037Z,12.13
2022-10-07T06:29:47.457Z,12.38
2022-10-07T06:34:47.205Z,12.25
2022-10-07T06:39:46.321Z,12.48
2022-10-07T06:44:48.339Z,12.56
2022-10-07T06:49:50.201Z,12.65
2022-10-07T06:54:52.127Z,12.79
2022-10-07T06:59:55.518Z,12.89
2022-10-07T07:04:57.560Z,13.12
2022-10-07T07:09:57.475Z,13.25
2022-10-07T07:14:56.985Z,13.12
2022-10-07T07:19:55.661Z,13.31
2022-10-07T07:24:55.600Z,13.36
2022-10-07T07:29:59.047Z,13.64
2022-10-07T07:35:00.732Z,13.59
2022-10-07T07:40:00.909Z,14.15
2022-10-07T07:45:01.599Z,14.17
2022-10-07T07:50:01.574Z,14.46
2022-10-07T07:55:03.311Z,14.69
2022-10-07T08:00:02.219Z,14.90
2022-10-07T08:05:04.511Z,15.10
2022-10-07T08:10:04.748Z,15.06
2022-10-07T08:15:05.371Z,15.57
2022-10-07T08:20:12.980Z,15.72
2022-10-07T08:25:14.057Z,15.73
2022-10-07T08:30:15.689Z,15.86
2022-10-07T08:35:20.924Z,16.19
2022-10-07T08:40:19.060Z,16.33
2022-10-07T08:45:35.448Z,16.25
2022-10-07T08:51:24.708Z,16.53
2022-10-07T08:56:24.062Z,16.88
2022-10-07T09:01:48.863Z,16.95
2022-10-07T09:06:55.422Z,16.85
2022-10-07T09:11:54.923Z,17.62
2022-10-07T09:17:07.126Z,18.00
2022-10-07T09:22:36.283Z,18.25
2022-10-07T09:27:34.004Z,18.23
2022-10-07T09:32:46.308Z,18.64
2022-10-07T09:38:11.579Z,19.03
2022-10-07T09:43:14.155Z,18.81
2022-10-07T09:48:19.431Z,19.05
2022-10-07T09:53:24.269Z,19.22
2022-10-07T09:58:26.499Z,19.25
2022-10-07T10:03:35.597Z,19.25
2022-10-07T10:08:37.489Z,19.38
2022-10-07T10:13:40.711Z,19.65
2022-10-07T10:19:04.869Z,19.86
2022-10-07T10:24:06.812Z,20.06
2022-10-07T10:29:30.015Z,20.35
2022-10-07T10:34:41.899Z,20.33
2022-10-07T10:39:42.820Z,20.47
2022-10-07T10:45:08.255Z,20.83
2022-10-07T10:50:18.823Z,20.51
2022-10-07T10:55:35.342Z,20.67
2022-10-07T11:01:24.514Z,20.99
2022-10-07T11:06:26.820Z,20.90
2022-10-07T11:11:28.621Z,20.96
2022-10-07T11:16:33.442Z,21.37
2022-10-07T11:21:53.879Z,21.48
2022-10-07T11:27:20.793Z,21.66
2022-10-07T11:32:29.638Z,21.83
2022-10-07T11:37:44.190Z,21.58
2022-10-07T11:42:44.724Z,21.53
2022-10-07T11:48:02.542Z,21.84
2022-10-07T11:53:22.796Z,21.73
2022-10-07T11:58:40.249Z,22.41
2022-10-07T12:03:38.156Z,22.47
2022-10-07T12:08:44.844Z,22.39
2022-10-07T12:13:45.555Z,22.49
2022-10-07T12:19:08.033Z,22.55
2022-10-07T12:24:15.819Z,22.64
2022-10-07T12:29:37.835Z,22.32
2022-10-07T12:34:44.300Z,22.47
2022-10-07T12:39:42.902Z,22.36
2022-10-07T12:44:47.399Z,22.87
2022-10-07T12:50:00.637Z,22.86
2022-10-07T12:55:02.993Z,22.46
2022-10-07T13:00:11.552Z,22.54
2022-10-07T13:05:25.496Z,22.48
2022-10-07T13:10:58.408Z,22.46
2022-10-07T13:16:05.589Z,22.36
2022-10-07T13:21:13.291Z,22.43
2022-10-07T13:26:12.331Z,22.20
2022-10-07T13:31:21.466Z,22.39
2022-10-07T13:36:28.154Z,22.63
2022-10-07T13:41:32.585Z,22.60
2022-10-07T13:46:33.814Z,22.38
2022-10-07T13:51:43.933Z,22.40
2022-10-07T13:56:42.707Z,22.13
2022-10-07T14:01:40.529Z,22.35
2022-10-07T14:06:59.185Z,22.69
2022-10-07T14:12:00.972Z,23.95
2022-10-07T14:16:59.799Z,24.25
2022-10-07T14:22:01.747Z,23.34
2022-10-07T14:27:02.779Z,22.64
2022-10-07T14:32:40.419Z,22.01
2022-10-07T14:37:41.539Z,21.72
2022-10-07T14:42:40.820Z,21.79
2022-10-07T14:47:39.174Z,21.44
2022-10-07T14:53:56.397Z,21.74
2022-10-07T14:58:57.897Z,21.37
2022-10-07T15:04:00.200Z,21.20
2022-10-07T15:08:59.658Z,21.12
2022-10-07T15:14:01.934Z,20.95
2022-10-07T15:19:10.735Z,20.73
2022-10-07T15:24:13.186Z,20.67
2022-10-07T15:29:13.483Z,20.54
2022-10-07T15:34:14.682Z,20.46
2022-10-07T15:39:15.962Z,20.31
2022-10-07T15:44:18.393Z,20.34
2022-10-07T15:49:19.677Z,20.19
2022-10-07T15:54:21.451Z,20.06
2022-10-07T15:59:21.022Z,20.06
2022-10-07T16:04:20.512Z,19.84
2022-10-07T16:09:22.331Z,19.84
2022-10-07T16:14:22.586Z,19.63
2022-10-07T16:19:22.268Z,19.90
2022-10-07T16:24:24.765Z,19.59
2022-10-07T16:29:46.872Z,19.59
2022-10-07T16:34:47.594Z,19.57
2022-10-07T16:39:45.126Z,19.44
2022-10-07T16:50:10.936Z,19.29
2022-10-07T16:55:09.396Z,19.33
2022-10-07T17:00:08.350Z,19.08
2022-10-07T17:05:06.261Z,18.88
2022-10-07T17:10:04.582Z,18.86
2022-10-07T17:15:03.314Z,18.94
2022-10-07T17:20:02.989Z,18.92
2022-10-07T17:25:03.365Z,18.81
2022-10-07T17:30:01.215Z,18.76
2022-10-07T17:35:00.055Z,18.63
2022-10-07T17:39:59.355Z,18.71
2022-10-07T17:44:58.316Z,18.55
2022-10-07T17:49:56.962Z,18.58
2022-10-07T17:54:57.558Z,18.25
2022-10-07T18:00:05.563Z,18.27
2022-10-07T18:05:12.954Z,18.46
2022-10-07T18:10:18.846Z,18.32
2022-10-07T18:15:20.415Z,18.21
2022-10-07T18:20:24.152Z,17.99
2022-10-07T18:25:22.641Z,17.96
2022-10-07T18:30:22.420Z,17.96
2022-10-07T18:35:22.794Z,17.94
2022-10-07T18:40:25.467Z,17.78
2022-10-07T18:45:23.714Z,17.68
2022-10-07T18:50:22.906Z,17.66
2022-10-07T18:55:24.026Z,17.63
2022-10-07T19:00:22.641Z,17.49
2022-10-07T19:05:21.038Z,17.47
2022-10-07T19:10:19.626Z,17.52
2022-10-07T19:15:20.868Z,17.24
2022-10-07T19:20:21.846Z,17.31
2022-10-07T19:25:43.390Z,17.35
2022-10-07T19:30:45.368Z,17.08
2022-10-07T19:35:47.485Z,17.08
2022-10-07T19:40:50.571Z,17.00
2022-10-07T19:45:51.783Z,16.87
2022-10-07T19:50:57.067Z,16.74
2022-10-07T19:55:55.379Z,16.81
2022-10-07T20:01:06.343Z,16.88
2022-10-07T20:06:08.770Z,16.63
2022-10-07T20:11:12.953Z,16.72
2022-10-07T20:16:16.811Z,16.37
2022-10-07T20:21:27.508Z,16.58
2022-10-07T20:26:30.462Z,16.42
2022-10-07T20:31:31.373Z,16.14
2022-10-07T20:36:32.907Z,16.43
2022-10-07T20:41:50.501Z,16.46
2022-10-07T20:46:52.168Z,16.27
2022-10-07T20:52:03.682Z,16.30
2022-10-07T20:57:05.489Z,16.04
2022-10-07T21:02:09.473Z,15.91
2022-10-07T21:07:12.569Z,15.75
2022-10-07T21:12:15.837Z,15.48
2022-10-07T21:17:20.330Z,15.94
2022-10-07T21:22:20.785Z,15.69
2022-10-07T21:27:24.336Z,15.87
2022-10-07T21:32:24.705Z,15.75
2022-10-07T21:37:26.329Z,15.87
2022-10-07T21:42:27.478Z,15.76
2022-10-07T21:47:26.091Z,15.94
2022-10-07T21:52:28.282Z,15.66
2022-10-07T21:57:29.272Z,15.62
2022-10-07T22:02:47.752Z,15.91
2022-10-07T22:08:18.162Z,15.71
2022-10-07T22:13:22.835Z,15.69
2022-10-07T22:18:34.135Z,15.80
2022-10-07T22:23:36.700Z,15.74
2022-10-07T22:28:38.971Z,15.52
2022-10-07T22:34:08.077Z,15.36
2022-10-07T22:39:14.070Z,15.21
2022-10-07T22:44:19.130Z,15.12
2022-10-07T22:49:22.302Z,15.09
2022-10-07T23:01:54.666Z,15.33
2022-10-07T23:07:00.580Z,15.32
2022-10-07T23:12:36.088Z,14.78
2022-10-07T23:17:42.118Z,14.85
2022-10-07T23:22:54.032Z,14.84
2022-10-07T23:27:56.341Z,14.70
2022-10-07T23:32:58.318Z,14.87
2022-10-07T23:38:00.885Z,14.77
2022-10-07T23:42:59.667Z,14.49
2022-10-07T23:48:05.024Z,14.44
2022-10-07T23:53:08.244Z,14.54
2022-10-07T23:58:12.438Z,14.37
